Port Orchard, WA (98366)

8:26 AM PDT on August 29, 2014 (GMT -0700)
Crane Ave E | Change Station
CLOSE
Current Station
Personal Weather Station
Location: Port Orchard, WA
Elevation: 75 ft
Nearby Weather Stations

Elev 75 ft 47.59 °N, 122.55 °W | Updated 1 second ago

Overcast
Overcast
59.7 °F
Feels Like 59.7 °F
N
0.0
Wind Variable Wind from SE
Gusts 4.0 mph

Today
High -- | Low -- °F
--% Chance of Precip.
Yesterday
High -- | Low -- °F
Precip. -- in
6:25 AM 7:56 PM
Waxing Crescent, 15% visible
Pressure 30.03 in
Visibility 10.0 miles
Clouds Overcast 800 ft
Dew Point 59 °F
Humidity 98%
Rainfall 0.00 in
Snow Depth Not available.
UV 0 out of 12
Pollen 2.40 out of 12
Air Quality Not available.
Flu Activity Not available.
METAR KPWT 291515Z AUTO 19005KT 10SM OVC008 13/13 A3003 RMK AO1

More Conditions Fewer Conditions

Pressure 30.03 in
Visibility 10.0 miles
Clouds Overcast 800 ft
Dew Point 59 °F
Humidity 98%
Rainfall 0.00 in
Snow Depth Not available.
UV 0 out of 12
Pollen 2.40 out of 12
Air Quality Not available.
Flu Activity Not available.
METAR KPWT 291515Z AUTO 19005KT 10SM OVC008 13/13 A3003 RMK AO1

More Conditions Fewer Conditions

Nowcast | as of 8:20 am PDT on August 29, 2014

An incoming weak Pacific frontal system will produce some light showers along the coast through 10 am and reach the interior of western Washington between 830 and 11 am. In addition...a weak Puget Sound convergence zone will produce some light rain or drizzle in South Snohomish and north King counties this morning.

×

10-Day Weather Forecast

Almanac

Astronomy

Aug. 29, 2014 Rise Set
Actual Time 6:25 AM PDT 7:56 PM PDT
Civil Twilight 5:53 AM PDT 8:28 PM PDT
Nautical Twilight 5:14 AM PDT 9:07 PM PDT
Astronomical Twilight 4:31 AM PDT 9:49 PM PDT
Moon 10:39 AM PDT 9:36 PM PDT
Length of Visible Light 14h 35m
Length of Day
13h 31m
Tomorrow will be 3m 17s shorter.
Waxing Crescent, 15% of the Moon is Illuminated
Today
Waxing Crescent
Sep 2
First Quarter
Sep 8
Full
Sep 15
Last Quarter
Sep 24
New

Today's Extremes

State Highs State Lows

Community

WunderPhotos

Upload Photos

1,748,263 photos uploaded!

Nearby

Snow Depth

Station Depth Elevation
Mount Crag 0 in 4050 ft
Dungeness 0 in 4100 ft
Waterhole 1 in 5000 ft
Alpine Meadows 0 in 3500 ft
Mount Gardner 0 in 3000 ft

Earthquake Activity

City Distance Mag. Time & Date
No recent earthquake activity has been reported nearby.
Minimum magnitude displayed is 2.5.

Coastal Water Temperatures

Place Temperature
Port Townsend, WA 53.1 °F
Seattle, WA 55.9 °F
Friday Harbor, WA 53.1 °F
Tacoma, WA 55.0 °F

Nearby Weather Stations